createdAt,value
2022-11-23T00:07:28.311Z,0.40
2022-11-23T00:27:50.767Z,0.27
2022-11-23T00:37:53.133Z,0.37
2022-11-23T00:47:55.815Z,0.43
2022-11-23T00:57:59.212Z,0.40
2022-11-23T01:08:01.588Z,0.40
2022-11-23T01:18:04.237Z,0.30
2022-11-23T01:28:06.648Z,0.50
2022-11-23T01:38:12.589Z,0.43
2022-11-23T01:48:24.021Z,0.40
2022-11-23T01:58:29.847Z,0.40
2022-11-23T02:08:32.936Z,0.50
2022-11-23T02:18:37.421Z,0.60
2022-11-23T02:28:45.921Z,0.80
2022-11-23T02:38:48.557Z,0.50
2022-11-23T02:48:50.912Z,0.60
2022-11-23T02:58:53.244Z,0.50
2022-11-23T03:08:56.263Z,0.70
2022-11-23T03:18:58.973Z,0.53
2022-11-23T03:29:01.375Z,0.60
2022-11-23T03:39:03.894Z,0.53
2022-11-23T03:49:06.659Z,0.70
2022-11-23T03:59:09.091Z,1.30
2022-11-23T04:09:13.539Z,0.43
2022-11-23T04:19:15.859Z,0.53
2022-11-23T04:29:18.670Z,0.43
2022-11-23T04:39:21.436Z,0.47
2022-11-23T04:49:23.936Z,0.90
2022-11-23T04:59:27.680Z,0.90
2022-11-23T05:09:31.073Z,0.93
2022-11-23T05:19:34.392Z,0.77
2022-11-23T05:29:38.505Z,0.30
2022-11-23T05:39:41.224Z,0.40
2022-11-23T05:49:44.767Z,0.43
2022-11-23T05:59:47.697Z,0.60
2022-11-23T06:09:51.439Z,0.70
2022-11-23T06:19:54.920Z,0.90
2022-11-23T06:29:57.633Z,0.60
2022-11-23T06:40:00.180Z,0.53
2022-11-23T06:50:03.414Z,0.60
2022-11-23T07:00:07.115Z,0.70
2022-11-23T07:10:10.178Z,0.70
2022-11-23T07:20:14.125Z,0.70
2022-11-23T07:30:17.135Z,2.87
2022-11-23T07:40:20.035Z,1.57
2022-11-23T07:50:22.911Z,1.97
2022-11-23T08:00:28.670Z,2.17
2022-11-23T08:10:33.058Z,1.70
2022-11-23T08:20:36.885Z,1.87
2022-11-23T08:30:40.473Z,1.83
2022-11-23T08:40:43.076Z,2.83
2022-11-23T08:50:45.801Z,2.57
2022-11-23T09:00:57.721Z,2.80
2022-11-23T09:11:03.651Z,3.50
2022-11-23T09:21:07.705Z,3.33
2022-11-23T09:31:11.369Z,3.70
2022-11-23T09:41:53.235Z,3.23
2022-11-23T09:52:58.354Z,3.10
2022-11-23T10:03:01.339Z,2.63
2022-11-23T10:13:35.771Z,2.53
2022-11-23T10:24:16.626Z,2.90
2022-11-23T10:34:46.002Z,2.83
2022-11-23T10:44:51.037Z,2.60
2022-11-23T10:54:57.020Z,1.83
2022-11-23T11:05:46.023Z,1.93
2022-11-23T11:16:02.843Z,1.40
2022-11-23T11:26:11.138Z,0.90
2022-11-23T11:36:19.726Z,1.07
2022-11-23T11:46:34.982Z,0.80
2022-11-23T12:07:33.151Z,0.50
2022-11-23T12:17:45.303Z,0.70
2022-11-23T12:28:17.851Z,0.60
2022-11-23T12:38:36.208Z,0.57
2022-11-23T12:49:13.309Z,0.60
2022-11-23T12:59:18.416Z,0.30
2022-11-23T13:09:26.932Z,0.40
2022-11-23T13:19:51.465Z,0.30
2022-11-23T13:29:54.270Z,0.20
2022-11-23T13:43:09.678Z,0.30
2022-11-23T14:00:56.604Z,0.40
2022-11-23T14:11:01.953Z,0.30
2022-11-23T14:21:33.767Z,0.27
2022-11-23T14:31:58.432Z,0.30
2022-11-23T14:42:11.584Z,0.20
2022-11-23T14:52:23.175Z,0.60
2022-11-23T15:02:34.976Z,0.63
2022-11-23T15:12:47.297Z,0.53
2022-11-23T15:22:51.447Z,0.60
2022-11-23T15:33:03.193Z,0.50
2022-11-23T15:43:06.122Z,0.40
2022-11-23T15:53:10.020Z,0.50
2022-11-23T16:03:54.440Z,1.00
2022-11-23T16:36:42.418Z,1.07
2022-11-23T16:57:58.629Z,1.00
2022-11-23T17:18:24.792Z,0.60
2022-11-23T17:43:12.958Z,0.37
2022-11-23T17:49:32.884Z,0.30
2022-11-23T17:59:35.986Z,0.20
2022-11-23T18:09:54.883Z,0.30
2022-11-23T18:20:09.122Z,0.43
2022-11-23T18:30:12.415Z,0.60
2022-11-23T18:40:15.877Z,0.20
2022-11-23T18:50:55.766Z,0.47
2022-11-23T19:01:18.076Z,0.77
2022-11-23T19:11:26.620Z,0.60
2022-11-23T19:21:38.545Z,0.47
2022-11-23T19:31:42.083Z,0.50
2022-11-23T19:42:03.148Z,0.37
2022-11-23T19:52:07.712Z,0.83
2022-11-23T20:13:10.139Z,0.30
2022-11-23T20:23:16.941Z,0.53
2022-11-23T20:33:21.468Z,0.30
2022-11-23T20:43:24.510Z,0.20
2022-11-23T20:53:33.889Z,0.30
2022-11-23T21:03:39.261Z,0.20
2022-11-23T21:14:00.128Z,0.20
2022-11-23T21:24:03.553Z,0.10
2022-11-23T21:34:06.786Z,0.10
2022-11-23T21:44:11.296Z,0.30
2022-11-23T21:54:17.219Z,0.27
2022-11-23T22:04:20.926Z,0.40
2022-11-23T22:14:23.839Z,0.80
2022-11-23T22:24:27.278Z,1.10
2022-11-23T22:34:30.620Z,0.80
2022-11-23T22:44:34.506Z,0.80
2022-11-23T22:54:38.506Z,1.00
2022-11-23T23:04:41.538Z,0.60
2022-11-23T23:14:44.615Z,0.47
2022-11-23T23:45:43.568Z,1.23
2022-11-23T23:56:08.814Z,1.07
